Time;durP1;ratioP1;P1;durP2;ratioP2;P2;SDS_P1;SDS_P2;PMS_P1;PMS_P2;Temp;Humidity;BMP_temperature;BMP_pressure;BME280_temperature;BME280_humidity;BME280_pressure;Samples;Min_cycle;Max_cycle;Signal;HPM_P1;HPM_P2
2023/10/28 00:02:23;;;;;;;17.83;4.63;;;11.70;99.90;;;;;;5064024;27;37967;-77
2023/10/28 00:04:49;;;;;;;15.52;5.10;;;11.70;99.90;;;;;;5061537;28;39783;-76
2023/10/28 00:07:15;;;;;;;17.70;4.95;;;11.70;99.90;;;;;;5060843;28;38778;-77
2023/10/28 00:09:41;;;;;;;16.25;4.97;;;11.70;99.90;;;;;;5061288;28;39518;-77
2023/10/28 00:12:12;;;;;;;17.27;6.43;;;11.70;99.90;;;;;;5064480;28;37803;-77
2023/10/28 00:14:38;;;;;;;17.90;6.25;;;11.70;99.90;;;;;;5064297;28;39049;-77
2023/10/28 00:17:04;;;;;;;14.63;6.03;;;11.70;99.90;;;;;;5065244;28;38413;-77
2023/10/28 00:19:32;;;;;;;19.60;5.80;;;11.70;99.90;;;;;;5060596;28;35895;-77
2023/10/28 00:21:58;;;;;;;22.42;6.57;;;11.70;99.90;;;;;;5068326;28;36777;-78
2023/10/28 00:24:24;;;;;;;22.92;6.43;;;11.70;99.90;;;;;;5062061;28;37993;-77
2023/10/28 00:26:50;;;;;;;16.58;5.82;;;11.70;99.90;;;;;;5058639;28;39241;-77
2023/10/28 00:29:16;;;;;;;16.38;5.35;;;11.60;99.90;;;;;;5051895;28;38452;-77
2023/10/28 00:31:44;;;;;;;14.38;4.90;;;11.60;99.90;;;;;;5063132;28;38611;-77
2023/10/28 00:34:10;;;;;;;24.77;7.03;;;11.50;99.90;;;;;;5065482;28;39730;-77
2023/10/28 00:36:36;;;;;;;14.63;5.95;;;11.50;99.90;;;;;;5060348;28;38709;-77
2023/10/28 00:39:03;;;;;;;19.63;5.90;;;11.50;99.90;;;;;;5060472;28;36132;-77
2023/10/28 00:41:32;;;;;;;19.77;7.22;;;11.50;99.90;;;;;;5065130;28;38280;-77
2023/10/28 00:43:58;;;;;;;26.38;7.28;;;11.50;99.90;;;;;;5085484;28;37706;-77
2023/10/28 00:46:24;;;;;;;23.53;7.00;;;11.50;99.90;;;;;;5063179;28;38294;-77
2023/10/28 00:48:53;;;;;;;23.85;7.10;;;11.50;99.90;;;;;;5064162;28;34675;-77
2023/10/28 00:51:19;;;;;;;22.03;7.53;;;11.50;99.90;;;;;;5064231;28;37684;-76
2023/10/28 00:53:45;;;;;;;23.13;7.83;;;11.50;99.90;;;;;;5053555;28;40409;-77
2023/10/28 00:56:12;;;;;;;18.10;7.57;;;11.60;99.90;;;;;;5059681;28;39495;-76
2023/10/28 00:58:40;;;;;;;22.58;7.60;;;11.60;99.90;;;;;;5080313;27;36679;-77
2023/10/28 01:03:42;;;;;;;27.23;8.65;;;11.60;99.90;;;;;;5158159;22;20549;-79
2023/10/28 01:06:10;;;;;;;16.87;7.90;;;11.60;99.90;;;;;;5063345;28;37454;-79
2023/10/28 01:08:36;;;;;;;19.03;8.13;;;11.60;99.90;;;;;;5062815;28;35977;-80
2023/10/28 01:11:02;;;;;;;20.83;7.57;;;11.60;99.90;;;;;;5066897;28;39529;-79
2023/10/28 01:13:29;;;;;;;18.45;6.90;;;11.70;99.90;;;;;;5066322;27;38951;-80
2023/10/28 01:15:59;;;;;;;17.37;7.00;;;11.70;99.90;;;;;;5055918;28;39004;-80
2023/10/28 01:18:26;;;;;;;32.15;7.50;;;11.60;99.90;;;;;;5064786;27;36266;-79
2023/10/28 01:20:52;;;;;;;22.53;7.63;;;11.60;99.90;;;;;;5055607;28;37734;-79
2023/10/28 01:23:18;;;;;;;26.45;7.88;;;11.70;99.90;;;;;;5068712;27;38972;-80
2023/10/28 01:25:44;;;;;;;20.88;7.60;;;11.70;99.90;;;;;;5062730;28;38343;-79
2023/10/28 01:28:11;;;;;;;16.75;7.32;;;11.70;99.90;;;;;;5057614;28;37553;-79
2023/10/28 01:30:37;;;;;;;23.80;7.73;;;11.70;99.90;;;;;;5066827;28;39267;-80
2023/10/28 01:33:03;;;;;;;24.25;7.30;;;11.70;99.90;;;;;;5063102;28;39006;-80
2023/10/28 01:35:31;;;;;;;20.55;8.27;;;11.70;99.90;;;;;;5064308;28;38278;-80
2023/10/28 01:37:58;;;;;;;22.52;7.88;;;11.70;99.90;;;;;;5066028;27;36855;-79
2023/10/28 01:40:24;;;;;;;22.60;7.43;;;11.80;99.90;;;;;;5064553;28;39130;-80
2023/10/28 01:42:50;;;;;;;18.27;6.82;;;11.80;99.90;;;;;;5081416;28;39088;-80
2023/10/28 01:45:17;;;;;;;12.85;6.40;;;11.80;99.90;;;;;;5061900;28;38243;-79
2023/10/28 01:47:44;;;;;;;20.33;6.57;;;11.80;99.90;;;;;;5065008;28;37986;-78
2023/10/28 01:50:13;;;;;;;16.30;5.93;;;11.80;99.90;;;;;;5063020;28;39143;-80
2023/10/28 01:52:41;;;;;;;15.63;6.90;;;11.80;99.90;;;;;;5063380;28;38366;-80
2023/10/28 01:55:09;;;;;;;13.15;6.25;;;11.80;99.90;;;;;;5056728;28;40510;-79
2023/10/28 01:57:35;;;;;;;19.80;6.32;;;11.90;99.90;;;;;;5062747;28;36542;-80
2023/10/28 02:00:06;;;;;;;19.20;7.20;;;11.90;99.90;;;;;;5056016;28;39005;-80
2023/10/28 02:02:34;;;;;;;16.15;6.68;;;11.90;99.90;;;;;;5062142;28;48313;-79
2023/10/28 02:05:00;;;;;;;16.02;6.88;;;12.00;99.90;;;;;;5070977;28;38706;-80
2023/10/28 02:07:27;;;;;;;20.88;7.57;;;12.00;99.90;;;;;;5059592;28;35969;-80
2023/10/28 02:09:53;;;;;;;18.45;7.60;;;12.00;99.90;;;;;;5060636;28;38581;-79
2023/10/28 02:12:19;;;;;;;18.73;7.15;;;12.00;99.90;;;;;;5057510;28;37343;-80
2023/10/28 02:14:46;;;;;;;19.10;7.20;;;12.00;99.90;;;;;;5066521;27;38633;-79
2023/10/28 02:17:12;;;;;;;18.43;7.90;;;12.00;99.90;;;;;;5057880;28;37106;-78
2023/10/28 02:19:39;;;;;;;20.20;7.18;;;12.00;99.90;;;;;;5061464;28;38704;-79
2023/10/28 02:22:06;;;;;;;12.40;6.10;;;11.90;99.90;;;;;;5064468;28;38617;-79
2023/10/28 02:24:32;;;;;;;17.45;6.40;;;11.90;99.90;;;;;;5059927;28;38163;-80
2023/10/28 02:26:58;;;;;;;15.25;5.63;;;11.90;99.90;;;;;;5056101;28;36597;-80
2023/10/28 02:29:24;;;;;;;12.02;5.25;;;11.90;99.90;;;;;;5060355;28;38799;-81
2023/10/28 02:31:50;;;;;;;13.70;5.13;;;11.90;99.90;;;;;;5064182;28;38859;-80
2023/10/28 02:34:17;;;;;;;15.82;5.32;;;11.90;99.90;;;;;;5063143;28;37463;-80
2023/10/28 02:36:43;;;;;;;10.30;5.60;;;11.90;99.90;;;;;;5066716;28;35810;-80
2023/10/28 02:39:12;;;;;;;12.65;5.38;;;11.80;99.90;;;;;;5063305;27;38602;-80
2023/10/28 02:41:38;;;;;;;11.43;4.93;;;11.80;99.90;;;;;;5063992;28;37813;-80
2023/10/28 02:44:05;;;;;;;13.70;4.75;;;11.70;99.90;;;;;;5063693;28;37946;-79
2023/10/28 02:46:31;;;;;;;15.85;5.45;;;11.70;99.90;;;;;;5061933;28;37474;-80
2023/10/28 02:48:57;;;;;;;12.82;4.97;;;11.70;99.90;;;;;;5060594;28;37558;-79
2023/10/28 02:51:23;;;;;;;13.87;5.00;;;11.70;99.90;;;;;;5061103;28;38955;-79
2023/10/28 02:53:50;;;;;;;10.82;5.03;;;11.70;99.90;;;;;;5061788;28;38030;-80
2023/10/28 02:56:16;;;;;;;12.70;5.40;;;11.70;99.90;;;;;;5051661;28;36029;-80
2023/10/28 02:58:42;;;;;;;12.32;5.13;;;11.70;99.90;;;;;;5054097;28;37429;-80
2023/10/28 03:01:13;;;;;;;11.82;4.97;;;11.80;99.90;;;;;;5050235;28;38181;-79
2023/10/28 03:03:41;;;;;;;8.73;4.93;;;11.80;99.90;;;;;;5057961;28;38527;-78
2023/10/28 03:06:07;;;;;;;11.23;4.33;;;11.80;99.90;;;;;;5074962;28;35894;-77
2023/10/28 03:08:33;;;;;;;9.87;4.20;;;11.80;99.90;;;;;;5061254;28;37336;-78
2023/10/28 03:11:00;;;;;;;11.33;3.90;;;11.80;99.90;;;;;;5060120;27;39046;-78
2023/10/28 03:13:26;;;;;;;6.93;3.87;;;11.80;99.90;;;;;;5060908;28;38291;-78
2023/10/28 03:15:52;;;;;;;6.90;3.33;;;11.80;99.90;;;;;;5060473;28;37270;-79
2023/10/28 03:18:19;;;;;;;8.95;3.13;;;11.80;99.90;;;;;;5059289;28;38746;-78
2023/10/28 03:20:45;;;;;;;8.40;3.40;;;11.80;99.90;;;;;;5059014;28;39774;-80
2023/10/28 03:23:11;;;;;;;7.53;3.47;;;11.80;99.90;;;;;;5057749;28;37289;-79
2023/10/28 03:25:37;;;;;;;8.75;3.90;;;11.80;99.90;;;;;;5061290;28;37869;-79
2023/10/28 03:28:04;;;;;;;6.57;3.10;;;11.80;99.90;;;;;;5058097;28;37760;-78
2023/10/28 03:30:31;;;;;;;7.60;3.27;;;11.80;99.90;;;;;;5063480;28;38447;-79
2023/10/28 03:32:58;;;;;;;5.85;3.08;;;11.80;99.90;;;;;;5062251;28;38269;-79
2023/10/28 03:35:24;;;;;;;10.20;3.15;;;11.80;99.90;;;;;;5063014;27;35702;-78
2023/10/28 03:37:50;;;;;;;8.80;3.37;;;11.80;99.90;;;;;;5061906;28;37700;-80
2023/10/28 03:40:16;;;;;;;9.85;3.20;;;11.80;99.90;;;;;;5061612;28;37408;-80
2023/10/28 03:42:42;;;;;;;6.90;2.83;;;11.80;99.90;;;;;;5063886;28;38314;-80
2023/10/28 03:45:09;;;;;;;7.13;2.85;;;11.80;99.90;;;;;;5059454;28;36903;-78
2023/10/28 03:47:35;;;;;;;7.23;3.20;;;11.80;99.90;;;;;;5055966;28;37587;-78
2023/10/28 03:50:02;;;;;;;10.77;3.50;;;11.80;99.90;;;;;;5056757;28;39120;-79
2023/10/28 03:52:28;;;;;;;6.32;2.95;;;11.80;99.90;;;;;;5062963;28;38605;-78
2023/10/28 03:54:54;;;;;;;10.70;3.25;;;11.80;99.90;;;;;;5057954;28;37007;-79
2023/10/28 03:57:21;;;;;;;14.00;4.20;;;11.90;99.90;;;;;;5060159;28;37779;-80
2023/10/28 03:59:49;;;;;;;6.68;3.00;;;11.80;99.90;;;;;;5066663;28;39521;-77
2023/10/28 04:02:17;;;;;;;7.50;3.30;;;11.80;99.90;;;;;;5055194;28;37153;-80
2023/10/28 04:04:44;;;;;;;10.77;3.60;;;11.90;99.90;;;;;;5059634;28;36985;-80
2023/10/28 04:07:10;;;;;;;9.43;3.57;;;11.90;99.90;;;;;;5059717;28;39494;-78
2023/10/28 04:09:40;;;;;;;11.83;3.80;;;11.90;99.90;;;;;;5061232;28;39252;-80
2023/10/28 04:12:06;;;;;;;14.50;4.10;;;11.90;99.90;;;;;;5059660;28;38365;-80
2023/10/28 04:14:35;;;;;;;7.78;3.63;;;11.90;99.90;;;;;;5065727;28;37242;-79
2023/10/28 04:17:03;;;;;;;10.97;4.13;;;11.90;99.90;;;;;;5067948;28;39383;-79
2023/10/28 04:19:29;;;;;;;10.55;3.90;;;11.90;99.90;;;;;;5062603;28;37901;-79
2023/10/28 04:21:55;;;;;;;7.75;4.53;;;11.90;99.90;;;;;;5068169;28;38336;-79
2023/10/28 04:24:23;;;;;;;10.30;4.37;;;11.90;99.90;;;;;;5065252;28;37333;-79
2023/10/28 04:26:50;;;;;;;11.67;4.90;;;11.90;99.90;;;;;;5060396;28;39004;-80
2023/10/28 04:29:16;;;;;;;11.05;4.35;;;11.90;99.90;;;;;;5059121;28;37687;-80
2023/10/28 04:31:42;;;;;;;16.58;4.93;;;12.00;99.90;;;;;;5073252;27;38673;-81
2023/10/28 04:34:08;;;;;;;12.98;4.93;;;12.00;99.90;;;;;;5067917;27;37662;-79
2023/10/28 04:36:34;;;;;;;9.90;4.47;;;12.00;99.90;;;;;;5067468;28;38254;-79
2023/10/28 04:39:01;;;;;;;13.55;4.28;;;12.00;99.90;;;;;;5063751;28;38630;-77
2023/10/28 04:41:27;;;;;;;14.27;4.43;;;12.00;99.90;;;;;;5065050;28;48274;-79
2023/10/28 04:43:54;;;;;;;12.57;4.38;;;12.00;99.90;;;;;;5064407;28;38559;-79
2023/10/28 04:46:20;;;;;;;11.82;4.50;;;12.00;99.90;;;;;;5060794;28;39646;-79
2023/10/28 04:48:46;;;;;;;11.38;4.55;;;12.10;99.90;;;;;;5065692;28;37890;-78
2023/10/28 04:51:13;;;;;;;15.32;5.30;;;12.00;99.90;;;;;;5062911;27;38211;-79
2023/10/28 04:53:39;;;;;;;11.68;4.28;;;12.00;99.90;;;;;;5060895;28;36842;-80
2023/10/28 04:56:08;;;;;;;12.85;4.35;;;12.00;99.90;;;;;;5059404;28;38359;-79
2023/10/28 04:58:35;;;;;;;15.02;5.25;;;12.10;99.90;;;;;;5055239;28;37711;-79
2023/10/28 05:01:01;;;;;;;8.85;4.03;;;12.00;99.90;;;;;;5065947;28;39283;-80
2023/10/28 05:03:27;;;;;;;9.55;3.83;;;12.00;99.90;;;;;;5062691;28;47737;-79
2023/10/28 05:05:53;;;;;;;11.15;4.43;;;12.00;99.90;;;;;;5064427;28;39116;-80
2023/10/28 05:08:20;;;;;;;7.97;4.32;;;12.00;99.90;;;;;;5062253;28;36102;-80
2023/10/28 05:10:46;;;;;;;9.88;3.95;;;12.00;99.90;;;;;;5064866;28;38564;-80
2023/10/28 05:13:12;;;;;;;16.05;4.70;;;12.00;99.90;;;;;;5063244;28;36551;-80
2023/10/28 05:15:39;;;;;;;11.48;4.00;;;12.00;99.90;;;;;;5064390;28;38487;-80
2023/10/28 05:18:05;;;;;;;10.57;4.43;;;12.00;99.90;;;;;;5058164;28;38061;-80
2023/10/28 05:20:35;;;;;;;18.08;5.18;;;12.00;99.90;;;;;;5064266;28;38189;-80
2023/10/28 05:23:01;;;;;;;12.18;5.72;;;12.00;99.90;;;;;;5065209;28;36444;-80
2023/10/28 05:25:28;;;;;;;13.15;6.63;;;12.00;99.90;;;;;;5062295;28;47204;-80
2023/10/28 05:27:54;;;;;;;14.23;5.57;;;12.00;99.90;;;;;;5063045;28;38667;-80
2023/10/28 05:30:20;;;;;;;15.07;5.63;;;12.00;99.90;;;;;;5069136;27;38341;-80
2023/10/28 05:32:46;;;;;;;11.38;5.50;;;12.00;99.90;;;;;;5063488;28;36342;-80
2023/10/28 05:35:13;;;;;;;15.07;5.50;;;12.00;99.90;;;;;;5060460;28;37547;-79
2023/10/28 05:37:39;;;;;;;16.70;6.18;;;11.90;99.90;;;;;;5063851;28;37725;-81
2023/10/28 05:40:13;;;;;;;12.65;5.38;;;11.90;99.90;;;;;;5063545;27;39688;-79
2023/10/28 05:42:39;;;;;;;17.92;6.07;;;11.90;99.90;;;;;;5064505;28;35764;-80
2023/10/28 05:45:07;;;;;;;14.98;5.70;;;11.90;99.90;;;;;;5070580;28;39417;-79
2023/10/28 05:47:34;;;;;;;11.02;5.63;;;11.90;99.90;;;;;;5058598;28;47296;-80
2023/10/28 05:50:05;;;;;;;14.80;5.82;;;11.90;99.90;;;;;;5061799;28;37322;-79
2023/10/28 05:52:33;;;;;;;11.50;5.60;;;11.90;99.90;;;;;;5059397;28;48506;-80
2023/10/28 05:54:59;;;;;;;12.95;5.30;;;11.90;99.90;;;;;;5062755;28;38740;-79
2023/10/28 05:57:26;;;;;;;14.38;5.93;;;11.90;99.90;;;;;;5060458;28;37770;-80
2023/10/28 05:59:52;;;;;;;17.48;6.03;;;11.90;99.90;;;;;;5057622;28;36706;-80
2023/10/28 06:02:18;;;;;;;11.40;6.47;;;11.90;99.90;;;;;;5064095;27;37824;-80
2023/10/28 06:04:45;;;;;;;14.35;5.38;;;11.90;99.90;;;;;;5060139;28;37985;-80
2023/10/28 06:07:11;;;;;;;12.85;5.30;;;12.00;99.90;;;;;;5063336;28;38619;-80
2023/10/28 06:09:37;;;;;;;14.50;5.65;;;12.00;99.90;;;;;;5061480;28;38391;-80
2023/10/28 06:12:03;;;;;;;11.90;5.82;;;12.00;99.90;;;;;;5061262;27;35938;-81
2023/10/28 06:14:30;;;;;;;15.82;5.93;;;12.00;99.90;;;;;;5068469;28;38291;-81
2023/10/28 06:16:57;;;;;;;12.38;5.65;;;12.00;99.90;;;;;;5067578;28;39308;-81
2023/10/28 06:19:23;;;;;;;16.52;5.45;;;12.00;99.90;;;;;;5062712;28;37353;-81
2023/10/28 06:21:51;;;;;;;14.95;6.28;;;12.00;99.90;;;;;;5061947;28;36563;-80
2023/10/28 06:24:18;;;;;;;12.23;6.07;;;12.00;99.90;;;;;;5062253;28;37839;-81
2023/10/28 06:26:47;;;;;;;10.32;5.28;;;12.00;99.90;;;;;;5063830;27;38976;-80
2023/10/28 06:29:13;;;;;;;16.13;6.30;;;12.00;99.90;;;;;;5063318;27;35673;-80
2023/10/28 06:31:40;;;;;;;12.18;5.40;;;12.00;99.90;;;;;;5067677;27;37492;-80
2023/10/28 06:34:06;;;;;;;12.38;5.38;;;12.00;99.90;;;;;;5063064;28;37880;-80
2023/10/28 06:36:33;;;;;;;14.07;4.88;;;12.00;99.90;;;;;;5078536;28;40673;-80
2023/10/28 06:38:59;;;;;;;17.38;5.60;;;12.00;99.90;;;;;;5056300;28;38304;-80
2023/10/28 06:41:25;;;;;;;11.68;5.45;;;12.00;99.90;;;;;;5052891;28;36932;-79
2023/10/28 06:43:55;;;;;;;15.57;5.70;;;12.00;99.90;;;;;;5059918;28;37948;-82
2023/10/28 06:46:21;;;;;;;22.93;6.40;;;12.00;99.90;;;;;;5059952;28;38553;-81
2023/10/28 06:48:47;;;;;;;13.13;5.38;;;12.00;99.90;;;;;;5058460;28;38391;-80
2023/10/28 06:51:13;;;;;;;10.82;5.40;;;12.00;99.90;;;;;;5070963;28;39713;-79
2023/10/28 06:53:40;;;;;;;14.65;4.97;;;12.10;99.90;;;;;;5079595;28;37807;-78
2023/10/28 06:56:07;;;;;;;13.60;4.72;;;12.10;99.90;;;;;;5078257;28;37661;-80
2023/10/28 06:58:33;;;;;;;13.38;5.15;;;12.10;99.90;;;;;;5065705;28;38532;-80
2023/10/28 07:00:59;;;;;;;14.10;4.50;;;12.20;99.90;;;;;;5056226;28;38414;-81
2023/10/28 07:03:26;;;;;;;14.65;4.97;;;12.20;99.90;;;;;;5061331;28;39614;-81
2023/10/28 07:05:52;;;;;;;18.63;4.55;;;12.20;99.90;;;;;;5063525;28;37541;-79
2023/10/28 07:08:19;;;;;;;21.02;5.50;;;12.20;99.90;;;;;;5067024;28;37401;-81
2023/10/28 07:10:45;;;;;;;14.57;4.20;;;12.20;99.90;;;;;;5059113;28;37340;-78
2023/10/28 07:13:12;;;;;;;21.83;5.60;;;12.20;99.90;;;;;;5042819;28;38765;-79
2023/10/28 07:15:38;;;;;;;11.45;4.40;;;12.20;99.90;;;;;;5051404;28;39554;-80
2023/10/28 07:18:07;;;;;;;14.55;4.93;;;12.20;99.90;;;;;;5050337;28;37730;-79
2023/10/28 07:20:33;;;;;;;15.13;4.68;;;12.20;99.90;;;;;;5048844;28;36310;-78
2023/10/28 07:23:02;;;;;;;12.18;4.32;;;12.30;99.90;;;;;;5046834;28;40479;-79
2023/10/28 07:25:29;;;;;;;14.02;4.25;;;12.30;99.90;;;;;;5047544;28;48155;-79
2023/10/28 07:27:57;;;;;;;11.95;3.92;;;12.30;99.90;;;;;;5056138;28;38856;-79
2023/10/28 07:30:24;;;;;;;14.32;4.25;;;12.30;99.90;;;;;;5054529;28;37168;-80
2023/10/28 07:32:50;;;;;;;12.75;4.28;;;12.30;99.90;;;;;;5050989;27;38462;-79
2023/10/28 07:35:16;;;;;;;17.63;4.60;;;12.30;99.90;;;;;;5049956;28;38994;-78
2023/10/28 07:37:42;;;;;;;20.98;4.38;;;12.40;99.90;;;;;;5045604;28;37803;-79
2023/10/28 07:40:12;;;;;;;15.32;4.25;;;12.40;99.90;;;;;;5041413;28;35612;-78
2023/10/28 07:42:38;;;;;;;13.38;4.35;;;12.40;99.90;;;;;;5046547;28;43319;-78
2023/10/28 07:45:05;;;;;;;13.95;4.15;;;12.50;99.90;;;;;;5046137;28;39619;-81
2023/10/28 07:47:31;;;;;;;15.40;3.83;;;12.50;99.90;;;;;;5054260;28;47150;-78
2023/10/28 07:49:57;;;;;;;12.85;3.97;;;12.60;99.90;;;;;;5058416;28;36398;-78
2023/10/28 07:52:23;;;;;;;11.40;2.75;;;12.60;99.90;;;;;;5058178;28;37902;-79
2023/10/28 07:54:50;;;;;;;15.20;2.70;;;12.70;99.90;;;;;;5059383;28;39321;-82
2023/10/28 07:57:16;;;;;;;14.43;3.08;;;12.90;99.90;;;;;;5055329;28;38209;-81
2023/10/28 07:59:42;;;;;;;12.50;2.53;;;13.00;99.90;;;;;;5062027;28;37217;-77
2023/10/28 08:02:08;;;;;;;15.20;2.97;;;13.10;99.90;;;;;;5053838;28;38593;-78
2023/10/28 08:04:34;;;;;;;15.45;3.00;;;13.10;99.90;;;;;;5057210;28;38991;-78
2023/10/28 08:07:02;;;;;;;10.05;2.75;;;13.20;99.90;;;;;;5059283;28;20045;-77
2023/10/28 08:09:28;;;;;;;11.48;3.00;;;13.30;99.90;;;;;;5052870;28;47187;-77
2023/10/28 08:11:54;;;;;;;13.52;2.67;;;13.30;99.90;;;;;;5053941;28;37788;-83
2023/10/28 08:14:21;;;;;;;13.90;2.65;;;13.30;99.90;;;;;;5056302;28;39050;-78
2023/10/28 08:16:47;;;;;;;8.35;2.72;;;13.30;99.90;;;;;;5052976;28;38898;-78
2023/10/28 08:19:13;;;;;;;18.02;3.53;;;13.40;99.90;;;;;;5061555;28;36302;-78
2023/10/28 08:21:39;;;;;;;16.88;2.70;;;13.40;99.90;;;;;;5062006;28;37586;-79
2023/10/28 08:24:08;;;;;;;12.30;2.40;;;13.40;99.90;;;;;;5064722;28;39063;-79
2023/10/28 08:26:34;;;;;;;13.00;3.38;;;13.40;99.90;;;;;;5059271;28;38469;-78
2023/10/28 08:29:01;;;;;;;9.63;2.38;;;13.40;99.90;;;;;;5052358;28;36444;-79
2023/10/28 08:31:28;;;;;;;9.23;2.20;;;13.50;99.90;;;;;;5053951;28;47748;-78
2023/10/28 08:33:54;;;;;;;13.43;2.53;;;13.50;99.90;;;;;;5058639;28;39782;-77
2023/10/28 08:36:20;;;;;;;13.48;2.42;;;13.50;99.90;;;;;;5050804;28;37649;-78
2023/10/28 08:38:47;;;;;;;9.98;2.25;;;13.60;99.90;;;;;;5057934;28;34723;-78
2023/10/28 08:41:19;;;;;;;10.25;2.70;;;13.70;99.90;;;;;;5047995;28;39149;-79
2023/10/28 08:43:45;;;;;;;12.95;2.70;;;13.70;99.90;;;;;;5048300;28;38060;-81
2023/10/28 08:46:12;;;;;;;7.90;2.28;;;13.80;99.90;;;;;;5052217;28;37663;-76
2023/10/28 08:48:39;;;;;;;9.40;2.45;;;13.80;99.90;;;;;;5049678;28;36864;-77
2023/10/28 08:51:08;;;;;;;8.40;2.03;;;13.70;99.90;;;;;;5055993;28;37743;-78
2023/10/28 08:53:36;;;;;;;9.35;1.92;;;13.70;99.90;;;;;;5047323;28;37964;-78
2023/10/28 08:56:03;;;;;;;11.05;2.13;;;13.70;99.90;;;;;;5069032;28;39085;-78
2023/10/28 08:58:29;;;;;;;8.75;2.63;;;13.70;99.90;;;;;;5058087;28;36198;-79
2023/10/28 09:00:59;;;;;;;9.90;2.50;;;13.70;99.90;;;;;;5053277;28;38479;-82
2023/10/28 09:03:26;;;;;;;8.63;2.08;;;13.80;99.90;;;;;;5061282;28;37775;-78
2023/10/28 09:05:53;;;;;;;12.88;2.65;;;13.80;99.90;;;;;;5058096;28;38773;-77
2023/10/28 09:08:20;;;;;;;11.98;2.33;;;13.80;99.90;;;;;;5060622;28;38011;-78
2023/10/28 09:10:46;;;;;;;10.38;1.88;;;13.80;99.90;;;;;;5064756;27;40458;-76
2023/10/28 09:13:13;;;;;;;4.85;1.70;;;13.80;99.90;;;;;;5059011;28;39145;-77
2023/10/28 09:15:40;;;;;;;12.48;2.10;;;13.80;99.90;;;;;;5053836;28;37515;-78
2023/10/28 09:18:06;;;;;;;7.30;1.67;;;13.70;99.90;;;;;;5060481;28;36180;-78
2023/10/28 09:20:32;;;;;;;6.90;2.03;;;13.80;99.90;;;;;;5054589;28;39885;-77
2023/10/28 09:22:58;;;;;;;8.95;2.33;;;13.80;99.90;;;;;;5049042;28;37277;-78
2023/10/28 09:25:24;;;;;;;9.45;2.20;;;13.80;99.90;;;;;;5048042;28;38593;-79
2023/10/28 09:27:51;;;;;;;8.23;2.08;;;13.80;99.90;;;;;;5046044;28;37143;-77
2023/10/28 09:30:21;;;;;;;10.18;2.38;;;13.80;99.90;;;;;;5048357;28;39531;-79
2023/10/28 09:32:48;;;;;;;6.60;2.20;;;13.70;99.90;;;;;;5047072;28;40049;-77
2023/10/28 09:35:14;;;;;;;9.90;1.80;;;13.80;99.90;;;;;;5051629;28;37175;-77
2023/10/28 09:37:41;;;;;;;5.15;2.08;;;13.70;99.90;;;;;;5051673;28;36451;-76
2023/10/28 09:40:12;;;;;;;6.07;1.95;;;13.80;99.90;;;;;;5055806;28;38561;-77
2023/10/28 09:42:39;;;;;;;7.45;2.83;;;13.80;99.90;;;;;;5051460;28;38645;-77
2023/10/28 09:45:08;;;;;;;11.10;2.20;;;13.90;99.90;;;;;;5045707;28;38151;-77
2023/10/28 09:48:01;;;;;;;11.73;2.40;;;13.90;99.90;;;;;;5051073;28;36482;-78
2023/10/28 09:50:30;;;;;;;10.35;2.22;;;13.90;99.90;;;;;;5053551;28;47914;-77
2023/10/28 09:52:57;;;;;;;10.60;2.60;;;13.80;99.90;;;;;;5053441;28;38446;-79
2023/10/28 09:55:30;;;;;;;6.90;2.10;;;13.80;99.90;;;;;;5053196;28;37288;-79
2023/10/28 09:58:04;;;;;;;8.73;2.25;;;13.80;99.90;;;;;;5051384;28;37007;-78
2023/10/28 10:00:31;;;;;;;7.53;1.75;;;13.90;99.90;;;;;;5059125;28;48518;-78
2023/10/28 10:03:07;;;;;;;7.97;2.30;;;13.90;99.90;;;;;;5058256;28;38118;-77
2023/10/28 10:05:42;;;;;;;9.05;2.00;;;13.90;99.90;;;;;;5064580;28;48391;-78
2023/10/28 10:08:18;;;;;;;8.43;1.95;;;13.90;99.90;;;;;;5066031;28;37162;-78
2023/10/28 10:10:47;;;;;;;7.97;2.10;;;13.90;99.90;;;;;;5063834;28;37717;-77
2023/10/28 10:13:16;;;;;;;13.15;2.25;;;13.90;99.90;;;;;;5060991;28;38543;-78
2023/10/28 10:16:07;;;;;;;9.45;2.05;;;13.90;99.90;;;;;;5049622;28;38664;-79
2023/10/28 10:18:39;;;;;;;8.93;2.08;;;13.90;99.90;;;;;;5043874;28;47350;-77
2023/10/28 10:21:11;;;;;;;12.35;2.50;;;14.00;99.90;;;;;;5047288;28;37536;-77
2023/10/28 10:23:45;;;;;;;8.07;2.20;;;14.00;99.90;;;;;;5060657;28;38778;-77
2023/10/28 10:26:27;;;;;;;10.32;2.22;;;14.00;99.90;;;;;;5067285;28;38541;-77
2023/10/28 10:28:55;;;;;;;7.28;2.10;;;14.10;99.90;;;;;;5048804;28;36578;-78
2023/10/28 10:31:22;;;;;;;10.50;2.35;;;14.30;99.90;;;;;;5048980;28;38428;-75
2023/10/28 10:34:08;;;;;;;6.55;2.03;;;14.40;99.90;;;;;;5052525;28;37639;-76
2023/10/28 10:36:40;;;;;;;9.25;2.25;;;14.40;99.90;;;;;;5051884;28;47183;-76
2023/10/28 10:39:17;;;;;;;6.45;2.15;;;14.40;99.90;;;;;;5056173;28;36028;-76
2023/10/28 10:41:47;;;;;;;8.18;1.88;;;14.40;99.90;;;;;;5060511;28;40797;-76
2023/10/28 10:44:33;;;;;;;6.70;1.50;;;14.40;99.90;;;;;;5059230;28;39608;-76
2023/10/28 10:47:01;;;;;;;8.35;2.38;;;14.40;99.90;;;;;;5055303;28;37357;-76
2023/10/28 10:49:28;;;;;;;6.63;2.05;;;14.30;99.90;;;;;;5048597;28;37103;-77
2023/10/28 10:51:56;;;;;;;11.65;1.88;;;14.30;99.90;;;;;;5058202;28;39898;-78
2023/10/28 10:54:38;;;;;;;10.93;2.58;;;14.20;99.90;;;;;;5048933;28;38883;-77
2023/10/28 10:57:06;;;;;;;10.02;2.58;;;14.20;99.90;;;;;;5051535;28;38714;-76
2023/10/28 10:59:34;;;;;;;13.82;2.50;;;14.20;99.90;;;;;;5055076;28;38995;-76
2023/10/28 11:02:01;;;;;;;11.45;2.47;;;14.30;99.90;;;;;;5066895;28;37544;-76
2023/10/28 11:04:34;;;;;;;10.15;2.13;;;14.30;99.90;;;;;;5059247;28;48932;-76
2023/10/28 11:07:01;;;;;;;;;;;14.30;99.90;;;;;;5060394;28;38362;-77
2023/10/28 11:09:27;;;;;;;17.42;2.60;;;14.30;99.90;;;;;;5061578;28;36212;-77
2023/10/28 11:11:54;;;;;;;12.70;2.72;;;14.40;99.90;;;;;;5064669;28;39822;-76
2023/10/28 11:14:20;;;;;;;15.68;2.58;;;14.30;99.90;;;;;;5056059;28;39742;-76
2023/10/28 11:16:46;;;;;;;10.45;2.45;;;14.30;99.90;;;;;;5058295;28;37393;-75
2023/10/28 11:19:13;;;;;;;10.63;2.47;;;14.30;99.90;;;;;;5058882;28;37013;-75
2023/10/28 11:21:40;;;;;;;12.00;2.70;;;14.40;99.90;;;;;;5064818;28;37582;-75
2023/10/28 11:24:11;;;;;;;11.20;2.72;;;14.40;99.90;;;;;;5056367;28;38678;-75
2023/10/28 11:26:37;;;;;;;15.68;2.67;;;14.40;99.90;;;;;;5059686;28;38544;-76
2023/10/28 11:29:05;;;;;;;11.13;2.40;;;14.50;99.90;;;;;;5062367;28;37437;-74
2023/10/28 11:31:31;;;;;;;16.10;2.70;;;14.50;99.90;;;;;;5063860;28;38380;-76
2023/10/28 11:33:59;;;;;;;10.70;2.33;;;14.60;99.90;;;;;;5059185;28;38806;-75
2023/10/28 11:36:25;;;;;;;10.25;2.47;;;14.70;99.90;;;;;;5060668;28;38343;-76
2023/10/28 11:38:52;;;;;;;15.43;2.83;;;14.80;99.90;;;;;;5060017;28;35982;-76
2023/10/28 11:41:21;;;;;;;16.77;3.35;;;15.00;99.90;;;;;;5059286;28;39110;-75
2023/10/28 11:43:49;;;;;;;14.55;3.13;;;15.00;99.90;;;;;;5057764;28;37277;-75
2023/10/28 11:46:16;;;;;;;14.63;2.83;;;15.00;99.90;;;;;;5050058;28;39088;-76
2023/10/28 11:48:45;;;;;;;15.85;2.90;;;15.00;99.90;;;;;;5062596;28;36220;-75
2023/10/28 11:51:13;;;;;;;18.85;3.10;;;15.00;99.90;;;;;;5061132;28;38771;-75
2023/10/28 11:53:47;;;;;;;20.15;2.90;;;15.00;99.90;;;;;;5063090;28;38696;-74
2023/10/28 11:56:19;;;;;;;12.15;2.90;;;14.80;99.90;;;;;;5060957;28;39754;-75
2023/10/28 11:58:46;;;;;;;17.55;2.60;;;14.80;99.90;;;;;;5063341;28;37352;-75
2023/10/28 12:01:14;;;;;;;15.55;3.03;;;14.80;99.90;;;;;;5061441;28;38912;-74
2023/10/28 12:03:40;;;;;;;19.02;3.42;;;14.80;99.90;;;;;;5059149;28;37981;-75
2023/10/28 12:06:06;;;;;;;16.73;3.28;;;14.80;99.90;;;;;;5059758;28;38128;-74
2023/10/28 12:08:33;;;;;;;17.38;2.95;;;14.80;99.90;;;;;;5064781;28;37387;-74
2023/10/28 12:10:59;;;;;;;18.02;2.92;;;14.70;99.90;;;;;;5061297;28;38632;-74
2023/10/28 12:13:26;;;;;;;19.80;3.95;;;14.70;99.90;;;;;;5061448;28;37330;-74
2023/10/28 12:15:52;;;;;;;15.52;3.45;;;14.70;99.90;;;;;;5058289;28;38566;-74
2023/10/28 12:18:18;;;;;;;20.23;4.80;;;14.70;99.90;;;;;;5051095;28;37193;-74
2023/10/28 12:20:44;;;;;;;19.98;4.35;;;14.70;99.90;;;;;;5055361;28;38369;-74
2023/10/28 12:23:13;;;;;;;14.07;3.58;;;14.60;99.90;;;;;;5058700;28;37804;-74
2023/10/28 12:25:39;;;;;;;15.98;3.72;;;14.60;99.90;;;;;;5061915;27;38558;-75
2023/10/28 12:28:06;;;;;;;17.83;3.92;;;14.50;99.90;;;;;;5062598;28;36370;-74
2023/10/28 12:30:34;;;;;;;17.65;3.85;;;14.60;99.90;;;;;;5064903;28;39435;-75
2023/10/28 12:33:00;;;;;;;20.42;3.90;;;14.60;99.90;;;;;;5061412;28;38727;-75
2023/10/28 12:35:26;;;;;;;17.58;3.22;;;14.60;99.90;;;;;;5055575;28;47379;-76
2023/10/28 12:37:52;;;;;;;21.40;3.47;;;14.60;99.90;;;;;;5067659;28;36048;-74
2023/10/28 12:40:18;;;;;;;18.42;3.95;;;14.70;99.90;;;;;;5064477;28;38893;-76
2023/10/28 12:42:45;;;;;;;16.13;3.35;;;14.70;99.90;;;;;;5063239;28;38398;-74